Branson, Colorado
Current Conditions -  °F | °C
As of 7:54 PM on Thursday 27 Nov 2014 (Local Time) from KTAD Reporting Station
Clear Clear  
Wind Chill: 40°   Ceiling: Unl
Heat Index: 46°   Visibility: 10mi
Dew Point: 25°   Wind: 14mph
Humidity: 44%   Direction: 230°SW
Pressure: 30.21"   Gusts: NA
Location:  37.02°N, 103.88°W
Report Text: KTAD 280254Z AUTO 23012KT 10SM CLR 08/M04 A3021 RMK AO2 SLP211 T00781039 58001
Loading
Personal Weather Stations






























Interactive Weather Map New forecast layout! Learn more

10-Day Weather Forecast

Advertisements
Track Severe Weather on mobile